Time;durP1;ratioP1;P1;durP2;ratioP2;P2;SDS_P1;SDS_P2;PMS_P1;PMS_P2;Temp;Humidity;BMP_temperature;BMP_pressure;BME280_temperature;BME280_humidity;BME280_pressure;Samples;Min_cycle;Max_cycle;Signal;HPM_P1;HPM_P2
2022/07/20 00:02:21;;;;;;;6.30;2.87;;;17.60;99.90;;;;;;5123811;27;20296;-76
2022/07/20 00:04:50;;;;;;;6.17;2.97;;;17.50;99.90;;;;;;5134502;27;20217;-76
2022/07/20 00:07:18;;;;;;;5.77;2.57;;;17.50;99.90;;;;;;5132274;27;20237;-75
2022/07/20 00:12:32;;;;;;;5.63;2.90;;;17.40;99.90;;;;;;5114508;28;20229;-76
2022/07/20 00:15:00;;;;;;;5.53;2.63;;;17.40;99.90;;;;;;5132886;28;20204;-73
2022/07/20 00:17:30;;;;;;;6.10;3.10;;;17.40;99.90;;;;;;5113812;28;20285;-76
2022/07/20 00:19:58;;;;;;;4.60;2.50;;;17.30;99.90;;;;;;5112075;28;20684;-76
2022/07/20 00:22:27;;;;;;;4.27;2.70;;;17.20;99.90;;;;;;5113228;28;20230;-75
2022/07/20 00:24:55;;;;;;;4.37;2.80;;;17.30;99.90;;;;;;5132657;28;20189;-75
2022/07/20 00:27:25;;;;;;;5.07;2.63;;;17.20;99.90;;;;;;5112283;28;20312;-76
2022/07/20 00:29:53;;;;;;;3.83;2.50;;;17.10;99.90;;;;;;5112305;28;20234;-76
2022/07/20 00:32:21;;;;;;;5.87;2.93;;;17.10;99.90;;;;;;5123344;28;20202;-76
2022/07/20 00:34:51;;;;;;;6.27;2.93;;;17.00;99.90;;;;;;5132608;28;20236;-77
2022/07/20 00:37:19;;;;;;;5.47;2.60;;;17.00;99.90;;;;;;5112718;28;20279;-74
2022/07/20 00:39:50;;;;;;;6.10;2.83;;;17.00;99.90;;;;;;5116253;28;20259;-76
2022/07/20 00:42:18;;;;;;;4.70;2.77;;;17.00;99.90;;;;;;5132667;28;20240;-75
2022/07/20 00:44:46;;;;;;;4.53;2.70;;;16.90;99.90;;;;;;5128888;28;20668;-76
2022/07/20 00:47:15;;;;;;;4.83;2.77;;;16.90;99.90;;;;;;5111884;28;20689;-75
2022/07/20 00:49:43;;;;;;;6.00;2.83;;;16.90;99.90;;;;;;5103827;28;20278;-75
2022/07/20 00:52:14;;;;;;;5.50;3.03;;;16.90;99.90;;;;;;5127282;28;20304;-74
2022/07/20 00:54:45;;;;;;;4.43;2.73;;;16.90;99.90;;;;;;5132898;28;20599;-79
2022/07/20 00:57:15;;;;;;;5.37;3.10;;;16.90;99.90;;;;;;5113026;28;20186;-76
2022/07/20 00:59:44;;;;;;;5.03;3.00;;;16.90;99.90;;;;;;5115222;28;20202;-77
2022/07/20 01:02:12;;;;;;;4.60;3.00;;;16.90;99.90;;;;;;5132794;28;20392;-75
2022/07/20 01:04:43;;;;;;;6.33;3.03;;;16.80;99.90;;;;;;5132450;28;20296;-76
2022/07/20 01:07:13;;;;;;;3.80;2.80;;;16.80;99.90;;;;;;5132171;28;20252;-76
2022/07/20 01:09:42;;;;;;;5.87;2.83;;;16.80;99.90;;;;;;5111554;28;20252;-75
2022/07/20 01:12:11;;;;;;;4.17;2.97;;;16.70;99.90;;;;;;5111920;28;20286;-75
2022/07/20 01:14:40;;;;;;;4.17;2.90;;;16.70;99.90;;;;;;5112447;28;20253;-76
2022/07/20 01:17:15;;;;;;;6.73;2.93;;;16.70;99.90;;;;;;5127317;28;20205;-75
2022/07/20 01:19:45;;;;;;;5.40;2.80;;;16.80;99.90;;;;;;5132618;27;20223;-74
2022/07/20 01:22:14;;;;;;;4.77;3.00;;;16.80;99.90;;;;;;5123268;27;20297;-75
2022/07/20 01:24:44;;;;;;;6.50;3.00;;;16.70;99.90;;;;;;5115648;28;20209;-76
2022/07/20 01:27:12;;;;;;;5.10;2.80;;;16.80;99.90;;;;;;5132644;27;20225;-76
2022/07/20 01:29:40;;;;;;;4.83;3.20;;;16.80;99.90;;;;;;5135519;27;20290;-75
2022/07/20 01:32:08;;;;;;;6.17;3.00;;;16.90;99.90;;;;;;5115115;28;20209;-74
2022/07/20 01:34:37;;;;;;;5.47;2.90;;;17.00;99.90;;;;;;5115239;28;20289;-74
2022/07/20 01:37:05;;;;;;;6.83;3.07;;;17.10;99.90;;;;;;5114952;28;20233;-74
2022/07/20 01:39:35;;;;;;;4.47;2.93;;;17.10;99.90;;;;;;5114698;28;20253;-76
2022/07/20 01:42:03;;;;;;;6.30;3.03;;;17.10;99.90;;;;;;5114758;28;20294;-75
2022/07/20 01:44:32;;;;;;;6.53;2.93;;;17.20;99.90;;;;;;5114727;28;20210;-75
2022/07/20 01:47:00;;;;;;;4.83;3.03;;;17.30;99.90;;;;;;5114851;28;20537;-74
2022/07/20 01:49:28;;;;;;;5.17;2.90;;;17.20;99.90;;;;;;5115153;28;20312;-75
2022/07/20 01:51:57;;;;;;;5.67;3.03;;;17.20;99.90;;;;;;5114951;28;20237;-75
2022/07/20 01:54:25;;;;;;;7.83;3.00;;;17.20;99.90;;;;;;5115072;28;20198;-74
2022/07/20 01:56:57;;;;;;;4.67;2.73;;;17.10;99.90;;;;;;5126959;27;20202;-75
2022/07/20 01:59:25;;;;;;;5.53;2.90;;;17.10;99.90;;;;;;5135222;27;20198;-75
2022/07/20 02:01:54;;;;;;;7.13;3.00;;;17.10;99.90;;;;;;5129716;27;20206;-75
2022/07/20 02:04:22;;;;;;;4.37;2.50;;;17.00;99.90;;;;;;5115296;28;20201;-74
2022/07/20 02:06:50;;;;;;;5.03;2.70;;;16.90;99.90;;;;;;5114714;28;20293;-74
2022/07/20 02:09:21;;;;;;;6.30;2.90;;;16.90;99.90;;;;;;5114376;28;20226;-75
2022/07/20 02:11:50;;;;;;;3.67;2.70;;;16.80;99.90;;;;;;5114476;28;20571;-77
2022/07/20 02:14:20;;;;;;;4.10;2.80;;;16.80;99.90;;;;;;5114505;27;20199;-76
2022/07/20 02:16:49;;;;;;;5.33;2.70;;;16.70;99.90;;;;;;5114582;28;20217;-73
2022/07/20 02:19:17;;;;;;;4.40;3.00;;;16.70;99.90;;;;;;5114322;28;20202;-74
2022/07/20 02:21:45;;;;;;;7.00;2.97;;;16.70;99.90;;;;;;5114741;28;20313;-75
2022/07/20 02:24:13;;;;;;;5.40;2.97;;;16.60;99.90;;;;;;5114749;27;20623;-76
2022/07/20 02:26:42;;;;;;;8.27;2.90;;;16.60;99.90;;;;;;5130369;27;20236;-73
2022/07/20 02:29:10;;;;;;;5.67;3.00;;;16.60;99.90;;;;;;5133899;27;20221;-75
2022/07/20 02:31:40;;;;;;;4.60;3.10;;;16.70;99.90;;;;;;5134171;27;20198;-73
2022/07/20 02:34:09;;;;;;;4.43;2.77;;;16.70;99.90;;;;;;5134672;27;20632;-74
2022/07/20 02:36:37;;;;;;;4.83;3.00;;;16.70;99.90;;;;;;5119997;27;20234;-75
2022/07/20 02:39:07;;;;;;;4.93;2.80;;;16.60;99.90;;;;;;5113968;28;20289;-73
2022/07/20 02:41:37;;;;;;;6.20;2.90;;;16.60;99.90;;;;;;5113767;28;20214;-75
2022/07/20 02:44:05;;;;;;;4.27;3.17;;;16.60;99.90;;;;;;5114165;28;20292;-74
2022/07/20 02:46:33;;;;;;;3.90;2.90;;;16.50;99.90;;;;;;5114405;28;20256;-75
2022/07/20 02:49:03;;;;;;;4.67;2.80;;;16.50;99.90;;;;;;5113745;28;20257;-75
2022/07/20 02:51:32;;;;;;;4.67;2.77;;;16.50;99.90;;;;;;5113987;28;20729;-75
2022/07/20 02:54:01;;;;;;;3.73;2.93;;;16.40;99.90;;;;;;5113788;28;20209;-76
2022/07/20 02:56:36;;;;;;;5.10;2.90;;;16.40;99.90;;;;;;5119152;27;20209;-73
2022/07/20 02:59:04;;;;;;;5.20;3.03;;;16.30;99.90;;;;;;5133319;27;20272;-74
2022/07/20 03:01:33;;;;;;;5.50;3.00;;;16.30;99.90;;;;;;5134009;27;20660;-74
2022/07/20 03:04:09;;;;;;;9.83;3.00;;;16.20;99.90;;;;;;5134163;27;20224;-74
2022/07/20 03:06:37;;;;;;;4.80;3.00;;;16.20;99.90;;;;;;5133439;27;20599;-74
2022/07/20 03:09:06;;;;;;;6.70;3.10;;;16.20;99.90;;;;;;5133820;27;20717;-75
2022/07/20 03:11:35;;;;;;;3.80;2.80;;;16.10;99.90;;;;;;5134245;27;20252;-75
2022/07/20 03:14:03;;;;;;;5.60;3.10;;;16.10;99.90;;;;;;5134387;27;20695;-74
2022/07/20 03:16:31;;;;;;;4.57;3.00;;;16.10;99.90;;;;;;5120374;27;20214;-74
2022/07/20 03:18:59;;;;;;;5.93;3.17;;;16.00;99.90;;;;;;5115222;27;20212;-75
2022/07/20 03:21:29;;;;;;;7.37;3.27;;;16.00;99.90;;;;;;5113107;28;20746;-73
2022/07/20 03:23:57;;;;;;;6.10;2.90;;;15.90;99.90;;;;;;5113083;28;20739;-74
2022/07/20 03:26:27;;;;;;;4.40;2.93;;;16.00;99.90;;;;;;5113386;28;20589;-75
2022/07/20 03:28:55;;;;;;;5.70;3.20;;;15.90;99.90;;;;;;5112865;28;20703;-74
2022/07/20 03:31:24;;;;;;;5.57;3.07;;;15.90;99.90;;;;;;5113283;28;20248;-72
2022/07/20 03:33:53;;;;;;;8.27;3.83;;;15.90;99.90;;;;;;5113129;28;20205;-74
2022/07/20 03:36:22;;;;;;;5.57;3.77;;;15.90;99.90;;;;;;5113630;27;20393;-73
2022/07/20 03:38:54;;;;;;;6.13;3.43;;;15.90;99.90;;;;;;5123651;27;20246;-73
2022/07/20 03:41:22;;;;;;;7.50;3.10;;;15.90;99.90;;;;;;5133314;27;20648;-74
2022/07/20 03:43:50;;;;;;;7.43;3.50;;;15.90;99.90;;;;;;5132932;27;20213;-74
2022/07/20 03:46:19;;;;;;;4.60;3.20;;;15.80;99.90;;;;;;5131369;27;20288;-74
2022/07/20 03:48:47;;;;;;;5.40;3.40;;;15.90;99.90;;;;;;5132989;27;20266;-74
2022/07/20 03:51:16;;;;;;;5.67;2.97;;;15.90;99.90;;;;;;5133351;27;20201;-74
2022/07/20 03:53:44;;;;;;;5.87;3.50;;;15.90;99.90;;;;;;5133386;27;20202;-74
2022/07/20 03:56:14;;;;;;;5.33;3.40;;;15.90;99.90;;;;;;5133451;27;20290;-75
2022/07/20 03:58:43;;;;;;;3.97;3.00;;;16.10;99.90;;;;;;5133223;27;20208;-77
2022/07/20 04:01:11;;;;;;;5.27;3.20;;;16.10;99.90;;;;;;5128430;27;20213;-74
2022/07/20 04:03:39;;;;;;;5.23;3.17;;;16.10;99.90;;;;;;5113081;28;20210;-75
2022/07/20 04:06:08;;;;;;;6.17;3.20;;;16.20;99.90;;;;;;5124856;27;20229;-74
2022/07/20 04:08:48;;;;;;;4.67;3.57;;;16.20;99.90;;;;;;5112868;28;20253;-75
2022/07/20 04:11:20;;;;;;;6.83;3.40;;;16.20;99.90;;;;;;5112835;28;20206;-75
2022/07/20 04:13:48;;;;;;;6.07;2.90;;;16.20;99.90;;;;;;5112506;28;20206;-74
2022/07/20 04:16:16;;;;;;;6.50;3.40;;;16.20;99.90;;;;;;5112291;28;20202;-75
2022/07/20 04:18:46;;;;;;;7.90;3.43;;;16.30;99.90;;;;;;5112329;28;20214;-75
2022/07/20 04:21:15;;;;;;;4.73;3.60;;;16.30;99.90;;;;;;5113003;28;20579;-74
2022/07/20 04:23:44;;;;;;;6.30;3.20;;;16.40;99.90;;;;;;5112738;28;20259;-76
2022/07/20 04:26:12;;;;;;;7.83;3.30;;;16.50;99.90;;;;;;5124921;28;20683;-75
2022/07/20 04:28:42;;;;;;;8.80;3.10;;;16.50;99.90;;;;;;5127784;28;20256;-74
2022/07/20 04:31:10;;;;;;;5.57;3.23;;;16.80;99.90;;;;;;5132819;28;20237;-75
2022/07/20 04:33:38;;;;;;;7.10;3.30;;;17.10;99.90;;;;;;5132741;28;20217;-76
2022/07/20 04:36:07;;;;;;;6.70;3.13;;;17.30;99.90;;;;;;5132961;28;20299;-74
2022/07/20 04:38:39;;;;;;;10.10;3.20;;;17.30;99.90;;;;;;5126036;28;20240;-75
2022/07/20 04:41:09;;;;;;;7.07;3.47;;;17.50;99.90;;;;;;5112232;28;20567;-77
2022/07/20 04:43:37;;;;;;;8.23;3.13;;;17.60;99.90;;;;;;5117293;28;20273;-76
2022/07/20 04:46:07;;;;;;;5.67;2.93;;;17.80;99.90;;;;;;5132558;28;20193;-77
2022/07/20 04:48:36;;;;;;;5.10;3.40;;;17.90;99.90;;;;;;5132712;28;20628;-77
2022/07/20 04:51:04;;;;;;;8.60;3.47;;;17.90;99.90;;;;;;5133059;28;20261;-75
2022/07/20 04:53:34;;;;;;;7.03;3.23;;;17.90;99.90;;;;;;5133368;27;20606;-75
2022/07/20 04:56:05;;;;;;;5.10;3.33;;;17.90;99.90;;;;;;5131867;27;20258;-73
2022/07/20 04:58:33;;;;;;;8.20;3.37;;;17.90;99.90;;;;;;5136862;27;20277;-75
2022/07/20 05:01:02;;;;;;;7.83;3.43;;;17.80;99.90;;;;;;5136004;27;20707;-75
2022/07/20 05:03:33;;;;;;;7.00;4.03;;;17.80;99.90;;;;;;5136997;27;20258;-74
2022/07/20 05:06:02;;;;;;;6.43;3.30;;;17.90;99.90;;;;;;5137115;27;20190;-75
2022/07/20 05:08:30;;;;;;;7.47;3.70;;;17.90;99.90;;;;;;5138255;27;20227;-74
2022/07/20 05:10:58;;;;;;;6.07;3.10;;;17.90;99.90;;;;;;5136986;27;20266;-77
2022/07/20 05:13:27;;;;;;;7.17;3.30;;;18.00;99.90;;;;;;5138399;27;20213;-76
2022/07/20 05:15:56;;;;;;;7.40;3.23;;;18.00;99.90;;;;;;5140100;27;20292;-75
2022/07/20 05:18:28;;;;;;;8.03;3.67;;;18.10;99.90;;;;;;5139600;27;20214;-76
2022/07/20 05:20:59;;;;;;;11.03;3.37;;;18.30;99.90;;;;;;5138960;27;20194;-75
2022/07/20 05:23:27;;;;;;;8.87;3.60;;;18.40;99.90;;;;;;5138184;27;20202;-76
2022/07/20 05:25:56;;;;;;;8.13;3.27;;;18.50;99.90;;;;;;5139461;27;20666;-75
2022/07/20 05:28:24;;;;;;;6.27;3.17;;;18.70;99.90;;;;;;5141866;27;20205;-76
2022/07/20 05:30:53;;;;;;;6.80;2.97;;;18.90;99.90;;;;;;5141398;27;20221;-75
2022/07/20 05:33:21;;;;;;;5.27;3.10;;;19.00;99.90;;;;;;5141454;27;20300;-76
2022/07/20 05:35:53;;;;;;;6.13;3.33;;;19.10;99.90;;;;;;5140445;27;20255;-75
2022/07/20 05:38:22;;;;;;;7.03;3.17;;;19.30;99.90;;;;;;5139721;27;20254;-76
2022/07/20 05:40:51;;;;;;;6.57;3.10;;;19.40;99.90;;;;;;5138972;27;20197;-76
2022/07/20 05:43:22;;;;;;;7.90;3.53;;;19.60;99.90;;;;;;5137299;27;20241;-74
2022/07/20 05:45:50;;;;;;;10.20;3.60;;;19.70;99.90;;;;;;5137890;27;20233;-77
2022/07/20 05:48:19;;;;;;;9.17;3.40;;;19.80;99.90;;;;;;5138249;27;20201;-76
2022/07/20 05:50:47;;;;;;;8.37;3.20;;;20.00;99.90;;;;;;5137430;27;20222;-76
2022/07/20 05:53:18;;;;;;;6.83;3.00;;;20.20;99.90;;;;;;5138612;27;20280;-75
2022/07/20 05:55:47;;;;;;;7.40;3.33;;;20.50;99.90;;;;;;5138758;27;20236;-76
2022/07/20 05:58:16;;;;;;;7.67;3.30;;;21.00;99.90;;;;;;5137020;27;20568;-74
2022/07/20 06:00:44;;;;;;;7.80;3.47;;;21.50;99.90;;;;;;5135434;27;20197;-76
2022/07/20 06:03:13;;;;;;;6.23;2.93;;;22.30;99.90;;;;;;5135607;27;20214;-78
2022/07/20 06:05:41;;;;;;;7.43;2.97;;;23.30;99.90;;;;;;5135159;27;20284;-76
2022/07/20 06:08:10;;;;;;;6.43;3.00;;;24.60;99.90;;;;;;5135437;27;20228;-75
2022/07/20 06:10:39;;;;;;;6.60;2.83;;;25.20;99.90;;;;;;5135009;27;20221;-79
2022/07/20 06:13:09;;;;;;;6.07;3.27;;;26.10;99.90;;;;;;5135441;27;20244;-79
2022/07/20 06:15:38;;;;;;;5.37;3.17;;;27.00;99.00;;;;;;5135322;27;20198;-79
2022/07/20 06:18:09;;;;;;;4.57;3.03;;;27.60;96.50;;;;;;5135099;27;20282;-79
2022/07/20 06:20:37;;;;;;;8.82;3.33;;;28.10;95.80;;;;;;5134982;27;20314;-78
2022/07/20 06:23:08;;;;;;;5.03;2.67;;;29.30;93.80;;;;;;5134895;27;20202;-82
2022/07/20 06:25:36;;;;;;;5.43;2.80;;;30.00;90.80;;;;;;5134454;27;20213;-80
2022/07/20 06:28:07;;;;;;;5.78;2.75;;;30.10;90.70;;;;;;5135195;27;20284;-84
2022/07/20 06:30:36;;;;;;;6.35;2.90;;;30.50;87.90;;;;;;5135286;27;20205;-84
2022/07/20 06:33:05;;;;;;;4.85;2.50;;;30.90;86.10;;;;;;5134785;27;20703;-84
2022/07/20 06:35:33;;;;;;;6.63;2.88;;;31.30;85.30;;;;;;5135182;27;20661;-85
2022/07/20 06:38:02;;;;;;;7.18;3.03;;;31.70;82.20;;;;;;5135355;27;20201;-81
2022/07/20 06:40:31;;;;;;;5.80;2.80;;;32.00;81.30;;;;;;5134751;27;20648;-84
2022/07/20 06:42:59;;;;;;;4.38;2.90;;;32.00;80.70;;;;;;5134319;27;20677;-83
2022/07/20 06:45:27;;;;;;;7.90;2.65;;;32.20;78.60;;;;;;5134110;27;20209;-80
2022/07/20 06:48:00;;;;;;;7.28;3.10;;;33.10;77.40;;;;;;5134254;27;20633;-79
2022/07/20 06:50:28;;;;;;;5.40;3.20;;;33.40;74.60;;;;;;5133671;27;20254;-82
2022/07/20 06:52:56;;;;;;;5.85;2.92;;;33.70;75.60;;;;;;5134587;27;20273;-81
2022/07/20 06:55:29;;;;;;;6.30;3.08;;;34.30;74.60;;;;;;5122579;27;20214;-81
2022/07/20 06:58:00;;;;;;;6.35;3.20;;;34.60;71.20;;;;;;5113360;28;20719;-82
2022/07/20 07:00:29;;;;;;;8.23;3.38;;;35.10;69.80;;;;;;5113874;28;20317;-83
2022/07/20 07:02:59;;;;;;;7.32;3.60;;;35.10;69.40;;;;;;5113639;28;20625;-81
2022/07/20 07:05:27;;;;;;;5.65;3.47;;;34.20;68.90;;;;;;5112927;28;20293;-81
2022/07/20 07:07:55;;;;;;;6.22;3.40;;;33.30;70.60;;;;;;5112992;28;20209;-83
2022/07/20 07:10:25;;;;;;;6.18;3.30;;;34.40;71.70;;;;;;5113022;28;20317;-83
2022/07/20 07:12:53;;;;;;;6.20;3.28;;;35.60;70.50;;;;;;5123811;27;20262;-82
2022/07/20 07:15:22;;;;;;;7.70;3.78;;;36.10;65.90;;;;;;5133603;27;20225;-81
2022/07/20 07:17:53;;;;;;;5.95;3.28;;;35.90;65.00;;;;;;5133787;27;20583;-82
2022/07/20 07:20:22;;;;;;;6.90;3.20;;;35.80;65.20;;;;;;5133068;27;20358;-82
2022/07/20 07:22:52;;;;;;;8.90;3.60;;;36.10;66.10;;;;;;5133276;27;20209;-84
2022/07/20 07:25:22;;;;;;;9.18;3.38;;;35.90;64.60;;;;;;5133653;27;20212;-80
2022/07/20 07:27:50;;;;;;;6.10;3.58;;;35.70;65.00;;;;;;5133583;27;20631;-81
2022/07/20 07:30:18;;;;;;;6.47;3.20;;;35.10;66.00;;;;;;5133285;27;20253;-81
2022/07/20 07:32:47;;;;;;;7.90;3.20;;;35.10;65.80;;;;;;5133378;27;20304;-81
2022/07/20 07:35:15;;;;;;;6.18;3.42;;;36.60;65.20;;;;;;5133393;27;20640;-82
2022/07/20 07:37:45;;;;;;;5.35;3.63;;;36.30;64.60;;;;;;5133299;27;20206;-84
2022/07/20 07:40:13;;;;;;;7.28;3.60;;;37.00;62.20;;;;;;5132654;27;20280;-82
2022/07/20 07:42:41;;;;;;;4.13;3.50;;;37.00;63.00;;;;;;5133007;27;20279;-83
2022/07/20 07:45:10;;;;;;;9.07;3.75;;;37.70;62.60;;;;;;5133539;27;20571;-83
2022/07/20 07:47:41;;;;;;;7.63;3.55;;;37.50;61.10;;;;;;5132912;27;20254;-82
2022/07/20 07:50:09;;;;;;;8.68;3.80;;;37.70;61.80;;;;;;5115186;27;20257;-83
2022/07/20 07:52:40;;;;;;;7.88;3.67;;;37.80;60.70;;;;;;5112801;28;20241;-82
2022/07/20 07:55:24;;;;;;;8.02;3.80;;;38.40;59.60;;;;;;5112822;28;20235;-83
2022/07/20 07:57:53;;;;;;;9.48;3.72;;;39.20;60.70;;;;;;5112498;28;20301;-84
2022/07/20 08:00:21;;;;;;;8.90;3.97;;;39.10;59.60;;;;;;5112435;28;20240;-82
2022/07/20 08:02:49;;;;;;;8.50;3.97;;;38.70;57.40;;;;;;5112425;28;20202;-82
2022/07/20 08:05:18;;;;;;;8.35;3.60;;;37.60;59.30;;;;;;5112263;28;20688;-83
2022/07/20 08:07:46;;;;;;;5.80;3.72;;;38.10;60.90;;;;;;5112299;28;20244;-83
2022/07/20 08:10:15;;;;;;;6.47;4.13;;;38.70;58.90;;;;;;5111864;28;20213;-82
2022/07/20 08:12:45;;;;;;;6.15;3.70;;;38.20;57.80;;;;;;5112002;28;20210;-82
2022/07/20 08:15:13;;;;;;;8.18;3.90;;;37.50;60.40;;;;;;5111925;28;20289;-82
2022/07/20 08:17:45;;;;;;;8.63;4.13;;;38.40;59.30;;;;;;5112337;28;20205;-82
2022/07/20 08:20:14;;;;;;;7.43;3.92;;;38.00;62.10;;;;;;5118476;28;20292;-83
2022/07/20 08:22:42;;;;;;;7.38;4.10;;;38.30;61.20;;;;;;5132760;28;20232;-80
2022/07/20 08:25:11;;;;;;;8.05;4.20;;;38.50;58.40;;;;;;5132515;28;20534;-82
2022/07/20 08:27:39;;;;;;;4.93;4.13;;;38.60;58.50;;;;;;5124109;28;20292;-82
2022/07/20 08:30:10;;;;;;;12.50;4.70;;;39.00;59.10;;;;;;5135195;27;20208;-83
2022/07/20 08:32:58;;;;;;;8.48;4.60;;;38.80;54.90;;;;;;5136465;27;20201;-82
2022/07/20 08:35:27;;;;;;;9.82;4.80;;;38.90;56.70;;;;;;5136835;27;20277;-82
2022/07/20 08:37:55;;;;;;;9.23;4.40;;;38.90;56.00;;;;;;5137028;27;20285;-83
2022/07/20 08:40:23;;;;;;;11.95;4.80;;;38.80;55.90;;;;;;5136579;27;20199;-82
2022/07/20 08:42:51;;;;;;;6.85;4.55;;;39.20;55.30;;;;;;5136581;27;20216;-81
2022/07/20 08:45:27;;;;;;;9.20;4.53;;;39.50;55.10;;;;;;5136851;27;20189;-81
2022/07/20 08:47:58;;;;;;;7.07;4.82;;;39.20;56.10;;;;;;5136925;27;20323;-82
2022/07/20 08:50:28;;;;;;;9.20;4.80;;;38.70;57.90;;;;;;5136952;27;20292;-82
2022/07/20 08:52:57;;;;;;;8.27;4.50;;;38.90;54.30;;;;;;5136145;27;20686;-81
2022/07/20 08:55:28;;;;;;;9.05;4.60;;;38.60;55.30;;;;;;5136951;27;20704;-82
2022/07/20 08:57:59;;;;;;;8.07;4.47;;;38.80;55.20;;;;;;5136408;27;20208;-82
2022/07/20 09:00:31;;;;;;;9.13;4.60;;;39.60;55.30;;;;;;5136236;27;20236;-84
2022/07/20 09:03:04;;;;;;;7.07;4.65;;;39.10;55.70;;;;;;5136459;27;20216;-82
2022/07/20 09:05:35;;;;;;;8.50;4.85;;;39.30;53.50;;;;;;5137293;27;20185;-83
2022/07/20 09:08:06;;;;;;;7.03;4.55;;;39.70;55.70;;;;;;5136590;27;20558;-82
2022/07/20 09:10:40;;;;;;;6.95;5.10;;;40.00;53.50;;;;;;5136313;27;20685;-83
2022/07/20 09:13:13;;;;;;;8.75;4.88;;;40.00;54.10;;;;;;5136371;27;20245;-85
2022/07/20 09:15:45;;;;;;;6.93;4.95;;;40.00;53.20;;;;;;5136347;27;20589;-82
2022/07/20 09:18:18;;;;;;;10.00;4.80;;;40.50;51.50;;;;;;5135723;27;20209;-82
2022/07/20 09:20:48;;;;;;;9.57;4.85;;;40.40;51.60;;;;;;5135933;27;20257;-82
2022/07/20 09:23:18;;;;;;;7.03;4.82;;;40.20;51.40;;;;;;5137247;27;20263;-83
2022/07/20 09:25:58;;;;;;;5.50;4.75;;;40.70;51.60;;;;;;5137004;27;20216;-83
2022/07/20 09:28:39;;;;;;;7.38;5.45;;;40.30;51.90;;;;;;5136356;27;20223;-83
2022/07/20 09:31:14;;;;;;;9.68;5.13;;;40.20;52.10;;;;;;5135987;27;20669;-82
2022/07/20 09:33:49;;;;;;;7.70;4.50;;;40.20;53.80;;;;;;5135730;27;20607;-83
2022/07/20 09:36:19;;;;;;;10.18;5.20;;;40.30;51.80;;;;;;5136853;27;20228;-83
2022/07/20 09:38:48;;;;;;;8.23;4.93;;;40.40;50.40;;;;;;5135167;27;20200;-82
2022/07/20 09:41:25;;;;;;;9.75;5.03;;;41.00;52.50;;;;;;5135240;27;20211;-84
2022/07/20 09:43:53;;;;;;;10.85;4.90;;;41.30;48.80;;;;;;5136057;27;20232;-83
2022/07/20 09:46:24;;;;;;;11.77;5.03;;;41.30;49.50;;;;;;5135840;27;20682;-82
2022/07/20 09:48:55;;;;;;;8.10;4.90;;;40.80;51.70;;;;;;5135299;27;20205;-81
2022/07/20 09:51:26;;;;;;;8.38;5.28;;;40.90;51.00;;;;;;5135601;27;20276;-83
2022/07/20 09:54:01;;;;;;;7.43;5.05;;;39.90;52.50;;;;;;5135741;27;20296;-83
2022/07/20 09:56:29;;;;;;;10.60;4.70;;;40.00;53.40;;;;;;5135723;27;20288;-82
2022/07/20 09:59:06;;;;;;;9.00;5.20;;;40.40;54.40;;;;;;5138608;27;20248;-81
2022/07/20 10:01:37;;;;;;;12.02;5.20;;;40.50;51.10;;;;;;5140053;27;20265;-83
2022/07/20 10:04:14;;;;;;;10.95;5.22;;;40.50;52.10;;;;;;5141106;27;20189;-82
2022/07/20 10:06:43;;;;;;;13.18;5.05;;;40.60;52.20;;;;;;5137217;27;20241;-82
2022/07/20 10:09:14;;;;;;;10.68;5.38;;;40.70;53.00;;;;;;5135084;27;20239;-83
2022/07/20 10:11:43;;;;;;;7.28;5.20;;;40.40;53.80;;;;;;5135132;27;20201;-83
2022/07/20 10:14:12;;;;;;;9.60;5.03;;;41.20;48.90;;;;;;5135045;27;20304;-82
2022/07/20 10:16:47;;;;;;;13.15;5.30;;;41.60;50.10;;;;;;5135160;27;20205;-82
2022/07/20 10:19:16;;;;;;;9.98;5.15;;;41.40;51.10;;;;;;5134905;27;20637;-82
2022/07/20 10:21:46;;;;;;;8.48;5.07;;;41.50;50.70;;;;;;5134849;27;20681;-82
2022/07/20 10:24:25;;;;;;;8.90;4.97;;;41.40;50.90;;;;;;5134864;27;20530;-82
2022/07/20 10:26:55;;;;;;;13.40;5.18;;;41.00;51.70;;;;;;5134947;27;20189;-82
2022/07/20 10:29:32;;;;;;;10.75;5.25;;;40.90;50.20;;;;;;5134353;27;20228;-82
2022/07/20 10:32:16;;;;;;;10.02;5.28;;;41.70;50.40;;;;;;5134352;27;20638;-83
2022/07/20 10:34:48;;;;;;;13.07;5.45;;;41.90;51.40;;;;;;5134419;27;20224;-82
2022/07/20 10:37:35;;;;;;;12.15;5.03;;;41.80;49.00;;;;;;5134509;27;20282;-83
2022/07/20 10:40:12;;;;;;;9.20;4.88;;;41.80;50.70;;;;;;5134255;27;20571;-81
2022/07/20 10:42:42;;;;;;;11.15;5.13;;;41.10;50.20;;;;;;5134178;27;20747;-83
2022/07/20 10:45:33;;;;;;;9.70;5.07;;;41.40;49.80;;;;;;5134400;27;20232;-83
2022/07/20 10:48:19;;;;;;;15.77;5.15;;;41.00;52.10;;;;;;5134089;27;20205;-81
2022/07/20 10:50:50;;;;;;;10.60;5.10;;;40.40;51.10;;;;;;5134156;27;20212;-83
2022/07/20 10:53:37;;;;;;;11.20;5.00;;;40.10;51.60;;;;;;5133756;27;20211;-82
2022/07/20 10:56:10;;;;;;;15.25;5.00;;;41.10;48.60;;;;;;5134030;27;20661;-83
2022/07/20 10:58:43;;;;;;;11.48;5.38;;;41.40;49.50;;;;;;5134042;27;20601;-82
2022/07/20 11:01:14;;;;;;;9.85;5.03;;;41.70;50.80;;;;;;5133923;27;20632;-83
2022/07/20 11:03:46;;;;;;;12.55;4.78;;;41.40;50.30;;;;;;5134008;27;20219;-83
2022/07/20 11:06:16;;;;;;;13.10;4.80;;;41.10;47.70;;;;;;5133806;27;20307;-83
2022/07/20 11:08:50;;;;;;;8.68;4.95;;;41.10;49.00;;;;;;5133777;27;20197;-82
2022/07/20 11:11:21;;;;;;;13.10;4.68;;;41.50;50.10;;;;;;5133981;27;20207;-82
2022/07/20 11:13:50;;;;;;;6.10;4.10;;;41.50;47.30;;;;;;5133594;27;20352;-83
2022/07/20 11:16:20;;;;;;;8.05;4.53;;;41.60;46.90;;;;;;5134129;27;20562;-82
2022/07/20 11:18:51;;;;;;;9.25;4.65;;;41.80;46.70;;;;;;5133156;27;20284;-81
2022/07/20 11:21:29;;;;;;;12.15;4.50;;;41.50;46.80;;;;;;5133416;27;20768;-83
2022/07/20 11:24:04;;;;;;;9.13;4.63;;;41.70;46.10;;;;;;5133532;27;20222;-82
2022/07/20 11:26:32;;;;;;;7.60;4.30;;;41.50;48.00;;;;;;5133576;27;20233;-84
2022/07/20 11:29:00;;;;;;;6.63;4.53;;;41.40;47.90;;;;;;5133401;27;20269;-81
2022/07/20 11:31:31;;;;;;;8.85;4.35;;;41.00;47.80;;;;;;5133316;27;20208;-82
2022/07/20 11:34:01;;;;;;;8.88;4.15;;;40.90;45.60;;;;;;5133984;27;20322;-83
2022/07/20 11:36:32;;;;;;;9.50;3.97;;;40.70;47.20;;;;;;5133032;27;20643;-82
2022/07/20 11:39:02;;;;;;;16.45;4.88;;;40.40;44.90;;;;;;5133649;27;20181;-81
2022/07/20 11:41:34;;;;;;;15.10;4.72;;;39.90;46.40;;;;;;5133246;27;20216;-81
2022/07/20 11:44:05;;;;;;;9.52;3.85;;;39.80;46.80;;;;;;5138455;27;20224;-82
2022/07/20 11:46:41;;;;;;;7.80;3.90;;;39.40;44.10;;;;;;5140205;27;20190;-82
2022/07/20 11:49:13;;;;;;;9.05;4.15;;;39.30;45.50;;;;;;5133370;27;20212;-81
2022/07/20 11:52:01;;;;;;;11.32;4.05;;;39.00;46.60;;;;;;5133441;27;20209;-82
2022/07/20 11:54:33;;;;;;;7.80;3.50;;;38.80;46.70;;;;;;5133266;27;20182;-82
2022/07/20 11:57:01;;;;;;;8.23;3.80;;;38.80;46.80;;;;;;5133413;27;20192;-80
2022/07/20 11:59:30;;;;;;;5.32;3.80;;;38.60;46.20;;;;;;5132839;27;20205;-81
2022/07/20 12:02:00;;;;;;;7.05;3.70;;;38.30;48.40;;;;;;5133170;27;20773;-82
2022/07/20 12:04:34;;;;;;;5.93;4.03;;;37.90;47.30;;;;;;5132668;27;20216;-81
2022/07/20 12:08:07;;;;;;;7.38;3.70;;;37.70;48.20;;;;;;5133062;27;20202;-81
2022/07/20 12:09:51;;;;;;;6.38;3.70;;;37.40;46.80;;;;;;5132771;27;20678;-81
2022/07/20 12:15:13;;;;;;;5.80;3.70;;;37.30;46.80;;;;;;5121868;28;20293;-80
2022/07/20 12:17:48;;;;;;;7.53;4.05;;;37.20;48.00;;;;;;5112686;28;20252;-79
2022/07/20 12:20:18;;;;;;;5.25;3.38;;;37.30;48.60;;;;;;5112491;28;20194;-79
2022/07/20 12:22:52;;;;;;;7.57;3.38;;;37.60;48.20;;;;;;5112665;28;20233;-80
2022/07/20 12:25:21;;;;;;;4.50;3.22;;;37.60;47.20;;;;;;5112595;28;20613;-80
2022/07/20 12:27:50;;;;;;;13.45;4.03;;;37.50;49.40;;;;;;5112435;28;20205;-80
2022/07/20 12:30:29;;;;;;;8.65;3.33;;;37.40;47.60;;;;;;5111835;28;20668;-78
2022/07/20 12:33:03;;;;;;;8.20;3.80;;;37.30;48.80;;;;;;5112395;28;20242;-82
2022/07/20 12:35:33;;;;;;;8.73;3.70;;;37.30;45.40;;;;;;5119411;28;20222;-78
2022/07/20 12:38:02;;;;;;;9.15;3.40;;;36.80;45.60;;;;;;5113293;28;20217;-78
2022/07/20 12:40:41;;;;;;;5.07;3.72;;;36.90;50.30;;;;;;5112597;28;20210;-80
2022/07/20 12:43:32;;;;;;;8.20;3.35;;;37.10;47.10;;;;;;5112136;28;20570;-77
2022/07/20 12:46:06;;;;;;;7.03;3.60;;;36.90;46.10;;;;;;5112562;28;20235;-81
2022/07/20 12:48:35;;;;;;;5.05;3.22;;;37.00;47.70;;;;;;5112562;28;20277;-79
2022/07/20 12:51:06;;;;;;;11.18;3.20;;;37.10;47.90;;;;;;5112919;28;20218;-81
2022/07/20 12:53:35;;;;;;;7.63;3.63;;;37.20;47.00;;;;;;5112624;28;20206;-79
2022/07/20 12:56:14;;;;;;;6.45;3.30;;;37.40;44.30;;;;;;5112592;28;20190;-82
2022/07/20 12:58:43;;;;;;;5.53;3.55;;;37.60;43.80;;;;;;5111946;28;20210;-80
2022/07/20 13:01:13;;;;;;;6.93;3.30;;;37.50;48.70;;;;;;5113111;28;20216;-82
2022/07/20 13:03:45;;;;;;;7.60;3.55;;;37.40;46.80;;;;;;5112604;28;20317;-80
2022/07/20 13:06:16;;;;;;;7.35;3.67;;;37.50;42.20;;;;;;5112874;28;20675;-80
2022/07/20 13:08:45;;;;;;;8.63;3.20;;;37.30;44.70;;;;;;5112600;28;20187;-81